Time;durP1;ratioP1;P1;durP2;ratioP2;P2;SDS_P1;SDS_P2;PMS_P1;PMS_P2;Temp;Humidity;BMP_temperature;BMP_pressure;BME280_temperature;BME280_humidity;BME280_pressure;Samples;Min_cycle;Max_cycle;Signal;HPM_P1;HPM_P2
2022/12/21 00:01:16;;;;;;;36.78;23.08;;;;;;;10.71;58.23;101001.66;7390168;19;20461;-58
2022/12/21 00:03:43;;;;;;;35.53;23.13;;;;;;;10.71;58.15;100996.19;7389953;19;20002;-58
2022/12/21 00:06:11;;;;;;;32.55;22.42;;;;;;;10.70;58.31;101000.09;7389087;19;20006;-59
2022/12/21 00:08:38;;;;;;;32.83;21.77;;;;;;;10.71;58.17;101007.13;7388853;19;20066;-58
2022/12/21 00:11:04;;;;;;;34.25;22.83;;;;;;;10.72;58.18;101010.66;7388777;19;19991;-58
2022/12/21 00:13:31;;;;;;;32.83;21.55;;;;;;;10.64;58.73;101006.88;7389763;19;19999;-58
2022/12/21 00:16:06;;;;;;;32.70;22.73;;;;;;;10.69;58.47;101000.41;7391123;19;20006;-59
2022/12/21 00:18:33;;;;;;;33.38;23.00;;;;;;;10.67;58.14;101003.47;7388599;19;20011;-58
2022/12/21 00:21:01;;;;;;;35.05;22.98;;;;;;;10.66;58.32;101004.59;7390143;19;20447;-58
2022/12/21 00:23:28;;;;;;;32.03;21.65;;;;;;;10.65;58.58;101019.41;7389745;19;19999;-58
2022/12/21 00:25:54;;;;;;;32.25;21.40;;;;;;;10.62;58.48;101016.53;7391436;19;19994;-58
2022/12/21 00:28:20;;;;;;;29.90;19.75;;;;;;;10.59;58.72;101009.81;7390307;19;20012;-59
2022/12/21 00:30:45;;;;;;;30.17;20.52;;;;;;;10.60;58.50;101011.41;7390285;19;20463;-57
2022/12/21 00:33:11;;;;;;;31.52;19.80;;;;;;;10.64;58.43;101006.88;7393226;19;20019;-57
2022/12/21 00:35:37;;;;;;;27.08;17.45;;;;;;;10.64;58.43;101009.63;7397277;19;20002;-58
2022/12/21 00:38:03;;;;;;;26.48;16.92;;;;;;;10.67;58.48;101005.41;7397707;19;19999;-57
2022/12/21 00:40:28;;;;;;;27.25;16.70;;;;;;;10.67;58.21;101014.41;7397204;19;20439;-57
2022/12/21 00:42:54;;;;;;;23.45;14.63;;;;;;;10.68;58.33;101007.00;7393888;19;20017;-57
2022/12/21 00:45:20;;;;;;;21.77;13.05;;;;;;;10.69;58.19;101005.88;7395720;19;20009;-57
2022/12/21 00:47:46;;;;;;;20.05;11.48;;;;;;;10.66;58.10;101006.56;7393757;19;20003;-58
2022/12/21 00:50:11;;;;;;;19.95;10.93;;;;;;;10.66;57.82;101010.06;7397263;19;20005;-57
2022/12/21 00:52:37;;;;;;;18.20;9.77;;;;;;;10.68;57.82;101018.72;7392434;19;20402;-58
2022/12/21 00:55:03;;;;;;;16.65;10.05;;;;;;;10.67;57.94;101017.13;7395179;19;20002;-57
2022/12/21 00:57:29;;;;;;;14.90;8.80;;;;;;;10.64;57.90;101012.34;7397311;19;20022;-57
2022/12/21 00:59:54;;;;;;;18.17;8.27;;;;;;;10.63;57.83;101008.00;7396864;19;20471;-57
2022/12/21 01:02:20;;;;;;;15.23;8.18;;;;;;;10.65;57.96;100996.75;7393716;19;20483;-58
2022/12/21 01:04:46;;;;;;;19.17;8.35;;;;;;;10.63;57.37;101002.53;7396769;19;20081;-57
2022/12/21 01:07:12;;;;;;;14.40;7.63;;;;;;;10.59;57.72;101014.50;7393585;19;19995;-58
2022/12/21 01:09:37;;;;;;;15.93;7.50;;;;;;;10.61;57.52;101020.41;7396924;19;20010;-58
2022/12/21 01:12:03;;;;;;;17.10;7.97;;;;;;;10.60;57.44;101027.00;7392911;19;20482;-58
2022/12/21 01:14:29;;;;;;;16.92;7.13;;;;;;;10.56;57.50;101032.34;7395798;19;20490;-58
2022/12/21 01:16:54;;;;;;;16.52;6.95;;;;;;;10.52;57.61;101034.16;7395301;19;20128;-57
2022/12/21 01:19:21;;;;;;;13.73;6.47;;;;;;;10.47;57.76;101039.78;7396046;19;20047;-59
2022/12/21 01:21:46;;;;;;;14.10;7.10;;;;;;;10.50;57.49;101036.38;7394590;19;20058;-57
2022/12/21 01:24:12;;;;;;;12.93;6.60;;;;;;;10.54;57.34;101035.38;7395536;19;20508;-58
2022/12/21 01:26:38;;;;;;;12.32;6.20;;;;;;;10.53;57.37;101025.59;7394630;19;20002;-57
2022/12/21 01:29:04;;;;;;;13.70;6.55;;;;;;;10.54;57.48;101024.47;7396257;19;20475;-57
2022/12/21 01:31:30;;;;;;;14.40;6.30;;;;;;;10.51;57.44;101029.81;7394451;19;20335;-58
2022/12/21 01:33:56;;;;;;;14.65;6.15;;;;;;;10.47;57.60;101046.06;7395157;19;19999;-57
2022/12/21 01:36:25;;;;;;;13.05;6.68;;;;;;;10.42;57.73;101043.53;7395202;19;20561;-57
2022/12/21 01:38:51;;;;;;;16.35;6.78;;;;;;;10.44;57.69;101046.72;7395823;19;20006;-57
2022/12/21 01:41:19;;;;;;;15.48;7.18;;;;;;;10.46;57.66;101035.47;7395048;19;20032;-58
2022/12/21 01:43:45;;;;;;;17.27;7.72;;;;;;;10.48;57.47;101046.84;7391537;19;20006;-58
2022/12/21 01:46:27;;;;;;;17.20;7.38;;;;;;;10.49;57.56;101043.00;7393907;19;20028;-58
2022/12/21 01:49:15;;;;;;;16.15;7.35;;;;;;;10.49;57.66;101051.97;7395560;19;19998;-58
2022/12/21 01:51:44;;;;;;;14.32;7.15;;;;;;;10.44;57.77;101059.56;7394209;19;19998;-58
2022/12/21 01:54:20;;;;;;;13.40;7.32;;;;;;;10.41;57.63;101052.06;7392849;19;20031;-59
2022/12/21 01:56:48;;;;;;;14.00;7.30;;;;;;;10.42;57.64;101062.63;7395650;19;20010;-58
2022/12/21 01:59:38;;;;;;;15.93;8.88;;;;;;;10.45;57.86;101055.69;7394553;19;20003;-58
2022/12/21 02:02:09;;;;;;;16.13;8.52;;;;;;;10.44;57.83;101059.56;7392472;19;20005;-58
2022/12/21 02:04:35;;;;;;;16.42;9.52;;;;;;;10.44;57.73;101065.81;7394152;19;20005;-59
2022/12/21 02:07:01;;;;;;;16.90;8.90;;;;;;;10.43;57.51;101066.16;7393157;19;20081;-57
2022/12/21 02:09:32;;;;;;;16.15;8.88;;;;;;;10.43;57.74;101057.97;7394636;19;19994;-58
2022/12/21 02:12:02;;;;;;;18.52;9.68;;;;;;;10.43;57.57;101057.97;7391245;19;20343;-58
2022/12/21 02:14:31;;;;;;;17.08;9.27;;;;;;;10.38;57.90;101051.59;7391915;19;20009;-58
2022/12/21 02:17:30;;;;;;;18.80;9.30;;;;;;;10.42;57.49;101054.44;7394066;19;20059;-58
2022/12/21 02:20:40;;;;;;;18.67;9.50;;;;;;;10.43;57.69;101060.69;7394278;19;20003;-58
2022/12/21 02:23:38;;;;;;;21.13;10.93;;;;;;;10.44;57.56;101054.91;7389341;19;20525;-57
2022/12/21 02:26:09;;;;;;;21.65;11.30;;;;;;;10.47;57.21;101056.16;7390448;19;20016;-57
2022/12/21 02:29:10;;;;;;;24.30;11.02;;;;;;;10.41;57.46;101052.06;7392489;19;20005;-57
2022/12/21 02:31:59;;;;;;;23.27;10.23;;;;;;;10.44;57.16;101052.19;7390100;19;20003;-57
2022/12/21 02:34:34;;;;;;;22.45;11.65;;;;;;;10.38;57.22;101050.78;7392817;19;20003;-57
2022/12/21 02:37:16;;;;;;;21.67;11.38;;;;;;;10.38;57.46;101051.59;7393892;19;20003;-57
2022/12/21 02:40:03;;;;;;;20.17;10.00;;;;;;;10.41;57.21;101052.06;7393332;19;20002;-58
2022/12/21 02:45:54;;;;;;;24.08;11.43;;;;;;;10.34;57.53;101064.28;7393278;19;20014;-58
2022/12/21 02:48:44;;;;;;;23.77;12.57;;;;;;;10.32;57.33;101058.38;7393709;19;20473;-58
2022/12/21 02:51:18;;;;;;;24.35;12.48;;;;;;;10.38;57.22;101059.78;7392845;19;20092;-58
2022/12/21 02:53:45;;;;;;;25.08;13.10;;;;;;;10.32;57.38;101050.19;7390614;19;20002;-57
2022/12/21 02:56:15;;;;;;;23.63;12.20;;;;;;;10.31;57.35;101054.03;7390248;19;19998;-57
2022/12/21 02:58:41;;;;;;;25.27;13.25;;;;;;;10.25;57.57;101063.56;7392779;19;20002;-57
2022/12/21 03:01:25;;;;;;;23.63;13.05;;;;;;;10.25;57.27;101065.50;7391986;19;20009;-58
2022/12/21 03:04:28;;;;;;;21.80;11.88;;;;;;;10.22;57.00;101072.44;7392027;19;20062;-58
2022/12/21 03:07:21;;;;;;;25.58;12.65;;;;;;;10.13;57.13;101066.22;7391378;19;19998;-57
2022/12/21 03:10:16;;;;;;;24.55;12.20;;;;;;;10.14;57.14;101063.16;7392430;19;20014;-58
2022/12/21 03:13:05;;;;;;;;;;;;;;;10.09;56.73;101057.91;7391179;19;20002;-58
2022/12/21 03:15:55;;;;;;;24.20;11.40;;;;;;;10.03;57.30;101058.44;7391330;19;19921;-58
2022/12/21 03:18:48;;;;;;;24.55;12.07;;;;;;;9.97;57.06;101055.91;7392733;19;20001;-58
2022/12/21 03:21:26;;;;;;;22.25;10.98;;;;;;;9.92;56.94;101053.38;7391049;19;20009;-58
2022/12/21 03:24:00;;;;;;;20.25;10.45;;;;;;;9.89;57.34;101054.03;7391753;19;20437;-57
2022/12/21 03:26:41;;;;;;;20.00;10.95;;;;;;;9.86;57.09;101053.88;7391588;19;20006;-57
2022/12/21 03:29:11;;;;;;;20.85;10.55;;;;;;;9.83;57.10;101060.78;7392642;19;19994;-58
2022/12/21 03:31:42;;;;;;;22.88;12.00;;;;;;;9.76;57.51;101063.25;7391100;19;20016;-58
2022/12/21 03:34:23;;;;;;;22.90;11.73;;;;;;;9.74;57.29;101057.31;7391115;19;20065;-57
2022/12/21 03:36:54;;;;;;;25.40;12.27;;;;;;;9.64;57.45;101056.56;7392258;19;20074;-57
2022/12/21 03:39:23;;;;;;;18.77;10.18;;;;;;;9.56;57.34;101062.81;7391986;19;20022;-58
2022/12/21 03:41:55;;;;;;;24.67;11.70;;;;;;;9.57;57.65;101061.69;7390690;19;20002;-58
2022/12/21 03:44:27;;;;;;;21.75;11.45;;;;;;;9.59;57.29;101062.19;7389465;19;20022;-58
2022/12/21 03:46:58;;;;;;;26.80;13.73;;;;;;;9.58;57.47;101060.59;7390054;19;20350;-58
2022/12/21 03:49:45;;;;;;;25.08;12.55;;;;;;;9.63;57.31;101071.34;7391437;19;20091;-58
2022/12/21 03:52:14;;;;;;;51.03;14.10;;;;;;;9.50;57.30;101069.59;7390068;19;20013;-58
2022/12/21 03:54:45;;;;;;;43.63;13.73;;;;;;;9.52;57.63;101067.34;7390792;19;20005;-58
2022/12/21 03:57:11;;;;;;;45.63;14.38;;;;;;;9.54;57.42;101059.63;7389246;19;20007;-58
2022/12/21 03:59:41;;;;;;;27.40;11.77;;;;;;;9.57;57.40;101048.06;7391286;19;20010;-59
2022/12/21 04:02:37;;;;;;;40.10;12.15;;;;;;;9.50;57.28;101045.06;7388104;19;20006;-59
2022/12/21 04:05:16;;;;;;;64.93;14.02;;;;;;;9.41;57.40;101045.09;7391216;19;20009;-58
2022/12/21 04:07:43;;;;;;;42.92;14.05;;;;;;;9.44;57.68;101046.38;7389640;19;20003;-58
2022/12/21 04:10:12;;;;;;;26.63;11.75;;;;;;;9.49;57.47;101046.19;7398943;19;20063;-58
2022/12/21 04:12:38;;;;;;;31.92;11.57;;;;;;;9.52;56.81;101048.25;7394330;19;20501;-58
2022/12/21 04:15:11;;;;;;;52.38;11.52;;;;;;;9.43;57.05;101036.59;7398728;19;20002;-59
2022/12/21 04:17:38;;;;;;;61.42;11.18;;;;;;;9.26;57.25;101037.47;7398006;19;20710;-59
2022/12/21 04:20:07;;;;;;;70.32;13.70;;;;;;;9.23;57.54;101030.75;7398530;19;20007;-59
2022/12/21 04:28:13;;;;;;;29.23;11.55;;;;;;;9.49;57.21;101045.41;7393057;19;20023;-59
2022/12/21 04:30:41;;;;;;;24.83;13.40;;;;;;;9.52;57.05;101031.91;7398083;19;20029;-59
2022/12/21 04:33:10;;;;;;;30.02;14.57;;;;;;;9.56;56.91;101045.69;7397302;19;19998;-59
2022/12/21 04:35:36;;;;;;;30.95;14.65;;;;;;;9.60;56.87;101052.91;7398036;19;20002;-59
2022/12/21 04:38:03;;;;;;;27.35;13.27;;;;;;;9.55;56.80;101046.78;7397643;19;20016;-59
2022/12/21 04:40:29;;;;;;;27.60;13.68;;;;;;;9.55;57.03;101044.88;7395698;19;20102;-59
2022/12/21 04:42:55;;;;;;;30.25;12.75;;;;;;;9.53;56.56;101047.13;7395076;19;20002;-59
2022/12/21 04:45:21;;;;;;;30.85;12.65;;;;;;;9.45;56.93;101042.53;7394983;19;20078;-59
2022/12/21 04:47:47;;;;;;;26.67;13.57;;;;;;;9.47;56.72;101045.72;7395567;19;19994;-59
2022/12/21 04:50:13;;;;;;;30.00;12.63;;;;;;;9.49;56.85;101038.00;7397190;19;20005;-59
2022/12/21 04:52:38;;;;;;;34.25;13.18;;;;;;;9.43;56.69;101031.97;7394274;19;19998;-59
2022/12/21 04:55:04;;;;;;;36.47;13.48;;;;;;;9.41;56.71;101033.41;7397643;19;19990;-59
2022/12/21 04:57:31;;;;;;;28.17;12.73;;;;;;;9.44;56.68;101038.19;7397207;19;20047;-58
2022/12/21 04:59:57;;;;;;;33.60;14.63;;;;;;;9.42;56.52;101030.34;7396797;19;20344;-59
2022/12/21 05:02:23;;;;;;;44.78;15.70;;;;;;;9.47;56.56;101037.56;7394460;19;20081;-59
2022/12/21 05:04:48;;;;;;;34.65;15.23;;;;;;;9.43;56.69;101031.97;7395147;19;20005;-59
2022/12/21 05:07:14;;;;;;;31.02;13.93;;;;;;;9.39;56.52;101035.66;7395131;19;19994;-58
2022/12/21 05:09:40;;;;;;;49.25;15.85;;;;;;;9.33;57.08;101026.06;7396083;19;20459;-59
2022/12/21 05:12:06;;;;;;;42.40;16.80;;;;;;;9.38;56.72;101031.31;7392765;19;20005;-58
2022/12/21 05:14:37;;;;;;;40.70;15.10;;;;;;;9.36;56.72;101026.22;7393988;19;20003;-59
2022/12/21 05:17:03;;;;;;;53.05;16.25;;;;;;;9.26;57.02;101026.56;7396592;19;20010;-58
2022/12/21 05:19:29;;;;;;;48.67;15.90;;;;;;;9.30;56.92;101032.16;7393304;19;20017;-57
2022/12/21 05:21:54;;;;;;;42.17;16.25;;;;;;;9.31;56.69;101040.00;7394678;19;20084;-57
2022/12/21 05:24:20;;;;;;;34.42;16.13;;;;;;;9.32;56.53;101036.16;7393167;19;19999;-57
2022/12/21 05:26:46;;;;;;;32.95;14.77;;;;;;;9.29;56.71;101036.81;7394929;19;19998;-57
2022/12/21 05:29:12;;;;;;;43.67;14.27;;;;;;;9.19;56.42;101037.97;7395433;19;20006;-56
2022/12/21 05:31:37;;;;;;;36.97;15.45;;;;;;;9.21;56.73;101041.16;7395120;19;20003;-57
2022/12/21 05:34:03;;;;;;;28.40;13.88;;;;;;;9.27;56.65;101037.16;7394928;19;19994;-56
2022/12/21 05:36:29;;;;;;;37.05;15.23;;;;;;;9.32;56.47;101035.38;7395462;19;20006;-57
2022/12/21 05:38:56;;;;;;;40.50;14.73;;;;;;;9.23;56.49;101038.94;7395548;19;20026;-57
2022/12/21 05:41:21;;;;;;;34.00;15.85;;;;;;;9.20;56.65;101031.41;7393936;19;20002;-57
2022/12/21 05:43:47;;;;;;;41.33;15.27;;;;;;;9.23;56.66;101028.03;7393037;19;20006;-58
2022/12/21 05:46:13;;;;;;;30.58;15.63;;;;;;;9.23;56.46;101032.66;7395077;19;20005;-58
2022/12/21 05:48:39;;;;;;;48.63;15.05;;;;;;;9.21;56.52;101035.72;7395396;19;19999;-58
2022/12/21 05:51:10;;;;;;;36.35;14.82;;;;;;;9.12;56.70;101026.78;7394765;19;20009;-58
2022/12/21 05:53:40;;;;;;;34.38;14.90;;;;;;;9.18;56.85;101025.50;7394430;19;20006;-58
2022/12/21 05:56:06;;;;;;;46.10;16.08;;;;;;;9.18;56.50;101028.22;7395448;19;20021;-58
2022/12/21 05:58:32;;;;;;;52.08;14.48;;;;;;;9.15;56.75;101025.31;7394928;19;20006;-58
2022/12/21 06:01:02;;;;;;;81.53;18.10;;;;;;;9.15;57.11;101015.25;7393682;19;19994;-58
2022/12/21 06:03:28;;;;;;;99.30;19.77;;;;;;;9.18;56.79;101011.06;7393819;19;20017;-58
2022/12/21 06:06:00;;;;;;;31.95;15.48;;;;;;;9.08;57.07;101010.31;7393215;19;19998;-58
2022/12/21 06:08:26;;;;;;;51.10;15.88;;;;;;;9.08;57.13;101014.94;7392883;19;19998;-57
2022/12/21 06:10:51;;;;;;;55.63;16.83;;;;;;;9.11;57.08;101022.47;7393870;19;20003;-56
2022/12/21 06:13:17;;;;;;;35.25;15.98;;;;;;;9.04;57.32;101012.06;7394100;19;20013;-56
2022/12/21 06:15:43;;;;;;;50.25;15.13;;;;;;;9.16;56.87;101025.00;7394561;19;20121;-58
2022/12/21 06:18:09;;;;;;;31.13;15.60;;;;;;;9.18;56.79;101028.22;7392864;19;19995;-57
2022/12/21 06:20:34;;;;;;;51.25;16.05;;;;;;;9.23;56.91;101038.94;7392431;19;20005;-58
2022/12/21 06:23:00;;;;;;;31.77;15.65;;;;;;;9.27;56.89;101042.59;7391667;19;19991;-58
2022/12/21 06:25:26;;;;;;;42.22;16.35;;;;;;;9.31;56.62;101045.47;7394384;19;19999;-57
2022/12/21 06:27:52;;;;;;;32.53;15.52;;;;;;;9.35;56.48;101046.41;7392127;19;19994;-58
2022/12/21 06:30:17;;;;;;;39.25;16.40;;;;;;;9.25;56.80;101041.34;7393227;19;19999;-56
2022/12/21 06:32:43;;;;;;;37.92;16.77;;;;;;;9.27;56.89;101050.75;7391570;19;20002;-58
2022/12/21 06:35:09;;;;;;;40.78;16.63;;;;;;;9.27;56.89;101052.69;7393538;19;19994;-58
2022/12/21 06:37:34;;;;;;;40.13;16.05;;;;;;;9.33;56.88;101039.69;7393554;19;20006;-58
2022/12/21 06:40:00;;;;;;;38.88;15.80;;;;;;;9.30;56.61;101035.72;7393330;19;19987;-58
2022/12/21 06:42:26;;;;;;;37.63;16.60;;;;;;;9.30;56.76;101032.16;7391519;19;19999;-57
2022/12/21 06:44:52;;;;;;;40.85;16.63;;;;;;;9.30;56.87;101026.72;7391159;19;20010;-58
2022/12/21 06:47:17;;;;;;;57.35;17.80;;;;;;;9.23;56.70;101033.50;7392526;19;20006;-58
2022/12/21 06:49:43;;;;;;;36.28;17.10;;;;;;;9.26;57.01;101040.97;7391002;19;20078;-58
2022/12/21 06:52:09;;;;;;;41.67;17.60;;;;;;;9.26;56.89;101042.91;7392173;19;20005;-58
2022/12/21 06:54:35;;;;;;;38.97;17.30;;;;;;;9.30;56.91;101054.78;7392783;19;20466;-58
2022/12/21 06:57:00;;;;;;;49.80;19.48;;;;;;;9.36;56.93;101052.66;7391690;19;20062;-58
2022/12/21 06:59:26;;;;;;;47.35;19.77;;;;;;;9.31;57.04;101055.56;7392991;19;20466;-58
2022/12/21 07:01:52;;;;;;;47.00;19.40;;;;;;;9.36;56.91;101041.75;7392182;19;20098;-58
2022/12/21 07:04:17;;;;;;;52.00;21.30;;;;;;;9.39;56.55;101058.25;7391781;19;20031;-58
2022/12/21 07:06:43;;;;;;;49.30;20.10;;;;;;;9.41;56.70;101052.47;7392776;19;20003;-58
2022/12/21 07:09:11;;;;;;;47.97;20.05;;;;;;;9.33;56.70;101040.47;7393066;19;20026;-58
2022/12/21 07:11:37;;;;;;;46.38;20.77;;;;;;;9.40;56.71;101050.88;7391570;19;20081;-58
2022/12/21 07:14:02;;;;;;;46.65;18.38;;;;;;;9.46;56.49;101053.09;7391668;19;20013;-58
2022/12/21 07:16:28;;;;;;;53.10;21.20;;;;;;;9.48;56.40;101058.22;7392265;19;20006;-58
2022/12/21 07:18:54;;;;;;;47.92;20.13;;;;;;;9.47;56.55;101059.34;7392478;19;20078;-58
2022/12/21 07:21:20;;;;;;;46.78;19.98;;;;;;;9.42;56.76;101052.16;7391840;19;20009;-58
2022/12/21 07:23:47;;;;;;;49.13;20.55;;;;;;;9.43;56.95;101055.66;7391271;19;20002;-58
2022/12/21 07:26:15;;;;;;;64.22;21.98;;;;;;;9.37;56.63;101060.50;7390452;19;19998;-58
2022/12/21 07:28:43;;;;;;;44.80;19.27;;;;;;;9.39;56.85;101055.53;7392745;19;20012;-58
2022/12/21 07:31:11;;;;;;;54.33;19.05;;;;;;;9.41;56.92;101053.25;7389995;19;20002;-57
2022/12/21 07:33:40;;;;;;;48.33;20.88;;;;;;;9.36;57.07;101049.94;7391302;19;20478;-57
2022/12/21 07:36:07;;;;;;;47.45;18.95;;;;;;;9.40;56.86;101048.13;7392209;19;19999;-58
2022/12/21 07:38:35;;;;;;;43.22;19.77;;;;;;;9.39;56.65;101052.00;7391709;19;19999;-58
2022/12/21 07:41:02;;;;;;;48.88;19.60;;;;;;;9.33;56.98;101053.31;7389728;19;20027;-59
2022/12/21 07:43:29;;;;;;;45.92;20.85;;;;;;;9.35;56.76;101056.50;7389321;19;19998;-59
2022/12/21 07:45:55;;;;;;;44.20;19.45;;;;;;;9.40;56.93;101053.59;7391234;19;20018;-57
2022/12/21 07:48:21;;;;;;;41.30;19.60;;;;;;;9.36;56.95;101060.81;7389699;19;20334;-59
2022/12/21 07:50:49;;;;;;;48.22;19.85;;;;;;;9.31;56.95;101061.00;7390740;19;20419;-58
2022/12/21 07:53:15;;;;;;;38.30;17.48;;;;;;;9.30;56.86;101064.84;7390471;19;20003;-59
2022/12/21 07:55:41;;;;;;;48.40;20.38;;;;;;;9.36;56.54;101047.22;7389380;19;20372;-59
2022/12/21 07:58:07;;;;;;;45.45;20.50;;;;;;;9.35;56.79;101060.03;7391268;19;20463;-59
2022/12/21 08:00:33;;;;;;;39.85;18.83;;;;;;;9.35;56.56;101068.22;7390709;19;20029;-58
2022/12/21 08:02:58;;;;;;;41.97;18.90;;;;;;;9.34;56.50;101072.06;7388515;19;20115;-59
2022/12/21 08:05:24;;;;;;;40.80;18.85;;;;;;;9.29;56.64;101069.50;7391385;19;19995;-58
2022/12/21 08:07:50;;;;;;;46.35;18.17;;;;;;;9.33;56.54;101072.38;7389595;19;20392;-59
2022/12/21 08:10:16;;;;;;;44.88;18.73;;;;;;;9.33;56.62;101069.66;7390488;19;20010;-59
2022/12/21 08:12:42;;;;;;;47.92;18.42;;;;;;;9.36;56.44;101069.00;7388270;19;20467;-59
2022/12/21 08:15:08;;;;;;;46.65;19.88;;;;;;;9.32;56.59;101070.78;7391348;19;20070;-59
2022/12/21 08:17:34;;;;;;;44.30;20.40;;;;;;;9.31;56.56;101066.47;7390857;19;20003;-58
2022/12/21 08:19:59;;;;;;;50.03;18.25;;;;;;;9.30;56.47;101067.56;7390818;19;20010;-58
2022/12/21 08:22:25;;;;;;;42.25;19.33;;;;;;;9.36;56.43;101074.44;7387917;19;20466;-58
2022/12/21 08:24:51;;;;;;;39.70;18.40;;;;;;;9.34;56.52;101063.09;7388621;19;20350;-58
2022/12/21 08:27:18;;;;;;;39.28;19.02;;;;;;;9.30;56.53;101064.84;7389355;19;19998;-58
2022/12/21 08:29:43;;;;;;;47.13;19.77;;;;;;;9.38;56.34;101072.19;7390330;19;20002;-59
2022/12/21 08:32:09;;;;;;;40.55;19.38;;;;;;;9.38;56.42;101067.56;7388976;19;20467;-58
2022/12/21 08:34:35;;;;;;;45.80;18.33;;;;;;;9.42;56.31;101067.72;7386720;19;20002;-58
2022/12/21 08:37:01;;;;;;;41.78;18.95;;;;;;;9.42;56.05;101068.50;7388432;19;20070;-59
2022/12/21 08:39:27;;;;;;;42.55;20.45;;;;;;;9.38;56.06;101066.75;7389825;19;20003;-59
2022/12/21 08:41:53;;;;;;;43.15;20.48;;;;;;;9.38;56.23;101066.75;7388434;19;20036;-59
2022/12/21 08:44:19;;;;;;;43.42;19.55;;;;;;;9.38;56.27;101067.56;7386841;19;20010;-57
2022/12/21 08:46:45;;;;;;;45.47;20.85;;;;;;;9.37;56.12;101065.94;7386959;19;20019;-58
2022/12/21 08:49:11;;;;;;;44.00;20.30;;;;;;;9.34;56.20;101054.91;7389970;19;20022;-57
2022/12/21 08:51:40;;;;;;;43.53;19.75;;;;;;;9.44;55.95;101055.34;7388894;19;19998;-56
2022/12/21 08:54:07;;;;;;;43.00;20.63;;;;;;;9.48;55.91;101058.22;7391660;19;20530;-57
2022/12/21 08:56:34;;;;;;;41.55;20.17;;;;;;;9.54;55.87;101065.06;7397294;19;19998;-57
2022/12/21 08:59:08;;;;;;;44.95;20.02;;;;;;;9.56;55.91;101071.00;7396204;19;20001;-57
2022/12/21 09:01:35;;;;;;;46.17;20.27;;;;;;;9.56;55.90;101078.38;7395835;19;20018;-58
2022/12/21 09:04:01;;;;;;;50.35;21.80;;;;;;;9.57;55.75;101075.31;7395910;19;20463;-57
2022/12/21 09:06:27;;;;;;;53.75;22.05;;;;;;;9.60;55.60;101079.34;7395881;19;20345;-57
2022/12/21 09:08:53;;;;;;;48.22;21.77;;;;;;;9.60;55.94;101074.72;7395720;19;19998;-58
2022/12/21 09:11:20;;;;;;;47.30;22.55;;;;;;;9.58;55.79;101068.75;7395838;19;20021;-57
2022/12/21 09:13:46;;;;;;;43.10;20.80;;;;;;;9.61;55.70;101079.00;7396478;19;20170;-57
2022/12/21 09:16:20;;;;;;;42.47;19.48;;;;;;;9.59;55.87;101075.81;7396882;19;20068;-58
2022/12/21 09:18:47;;;;;;;;;;;;;;;9.60;55.67;101074.72;7395638;19;20066;-58
2022/12/21 09:21:15;;;;;;;41.70;19.33;;;;;;;9.60;55.82;101063.81;7396029;19;19911;-56
2022/12/21 09:23:51;;;;;;;43.92;19.52;;;;;;;9.61;55.74;101057.22;7391563;19;20486;-57
2022/12/21 09:26:18;;;;;;;44.42;19.92;;;;;;;9.61;55.78;101049.03;7395409;19;20410;-58
2022/12/21 09:28:43;;;;;;;44.10;20.65;;;;;;;9.64;55.76;101047.59;7396080;19;20010;-57
2022/12/21 09:31:15;;;;;;;38.28;17.75;;;;;;;9.61;55.82;101050.97;7394663;19;20038;-57
2022/12/21 09:33:42;;;;;;;41.03;20.50;;;;;;;9.69;55.68;101068.41;7394914;19;20007;-57
2022/12/21 09:36:10;;;;;;;41.15;19.17;;;;;;;9.67;55.55;101068.75;7394850;19;20016;-57
2022/12/21 09:38:36;;;;;;;42.08;18.65;;;;;;;9.63;55.72;101068.59;7396018;19;20088;-57
2022/12/21 09:41:05;;;;;;;43.25;19.65;;;;;;;9.67;55.60;101067.94;7395129;19;20436;-57
2022/12/21 09:43:36;;;;;;;44.35;19.17;;;;;;;9.67;55.67;101066.03;7395365;19;20066;-57
2022/12/21 09:46:13;;;;;;;45.10;20.35;;;;;;;9.61;55.98;101068.09;7392097;19;19999;-58
2022/12/21 09:48:43;;;;;;;43.10;20.17;;;;;;;9.64;55.85;101075.63;7393326;19;20086;-59
2022/12/21 09:51:21;;;;;;;51.47;21.35;;;;;;;9.55;56.01;101082.22;7394169;19;20002;-58
2022/12/21 09:53:58;;;;;;;51.65;22.10;;;;;;;9.54;56.19;101080.63;7394553;19;20002;-59
2022/12/21 09:56:26;;;;;;;50.33;22.40;;;;;;;9.54;55.96;101072.47;7394975;19;20442;-58
2022/12/21 09:58:53;;;;;;;41.28;19.42;;;;;;;9.59;55.96;101058.69;7395541;19;20002;-57
2022/12/21 10:01:27;;;;;;;45.33;21.15;;;;;;;9.63;55.75;101059.59;7393458;19;20020;-57
2022/12/21 10:03:59;;;;;;;46.13;21.92;;;;;;;9.71;55.50;101063.44;7393845;19;20090;-58
2022/12/21 10:07:03;;;;;;;46.80;21.27;;;;;;;9.69;55.96;101079.31;7392343;19;20598;-57
2022/12/21 10:09:39;;;;;;;48.45;21.27;;;;;;;9.78;55.87;101059.06;7390181;19;19994;-57
2022/12/21 10:12:29;;;;;;;66.30;23.98;;;;;;;9.79;55.76;101055.19;7388049;19;20397;-58
2022/12/21 10:15:16;;;;;;;56.47;22.65;;;;;;;9.74;55.93;101060.06;7393569;19;20019;-57
2022/12/21 10:17:54;;;;;;;58.17;22.27;;;;;;;9.73;55.77;101055.72;7394071;19;19995;-58
2022/12/21 10:20:29;;;;;;;95.68;25.33;;;;;;;9.79;55.95;101051.69;7394492;19;20014;-57
2022/12/21 10:22:59;;;;;;;74.07;23.55;;;;;;;9.80;55.89;101051.34;7391338;19;20006;-57
2022/12/21 10:25:34;;;;;;;61.70;25.05;;;;;;;9.81;55.85;101036.56;7394387;19;20054;-57
2022/12/21 10:28:33;;;;;;;105.65;29.08;;;;;;;9.81;55.87;101033.84;7391452;19;20002;-57
2022/12/21 10:31:03;;;;;;;67.35;25.42;;;;;;;9.81;55.89;101030.34;7393261;19;19998;-58
2022/12/21 10:33:30;;;;;;;52.22;21.85;;;;;;;9.80;55.74;101031.44;7392569;19;20451;-58
2022/12/21 10:36:02;;;;;;;54.63;22.05;;;;;;;9.80;55.89;101045.91;7393561;19;20050;-58
2022/12/21 10:38:32;;;;;;;49.33;23.15;;;;;;;9.81;56.00;101042.03;7393875;19;20339;-58
2022/12/21 10:41:00;;;;;;;48.85;21.85;;;;;;;9.87;55.80;101039.94;7391855;19;20007;-58
2022/12/21 10:43:26;;;;;;;48.97;21.55;;;;;;;9.82;55.70;101037.41;7393251;19;20003;-57
2022/12/21 10:45:58;;;;;;;52.00;20.27;;;;;;;9.79;55.70;101038.84;7390592;19;20418;-58
2022/12/21 10:48:24;;;;;;;44.95;20.27;;;;;;;9.78;55.63;101031.81;7390781;19;20478;-57
2022/12/21 10:50:51;;;;;;;40.25;19.67;;;;;;;9.80;55.64;101031.44;7390509;19;20054;-56
2022/12/21 10:53:27;;;;;;;39.72;19.38;;;;;;;9.83;55.54;101028.06;7390054;19;20463;-57
2022/12/21 10:55:56;;;;;;;39.25;18.63;;;;;;;9.87;55.15;101023.56;7393235;19;20011;-58
2022/12/21 10:58:31;;;;;;;42.30;19.40;;;;;;;9.98;54.96;101023.97;7393267;19;20328;-58
2022/12/21 11:01:05;;;;;;;45.22;18.73;;;;;;;10.04;54.58;101014.47;7392848;19;20018;-57
2022/12/21 11:03:36;;;;;;;41.47;19.30;;;;;;;10.15;54.51;101028.50;7392548;19;20070;-58
2022/12/21 11:06:19;;;;;;;48.33;19.30;;;;;;;10.04;54.46;101039.00;7392707;19;20003;-58
2022/12/21 11:08:52;;;;;;;45.38;19.60;;;;;;;9.95;54.88;101040.97;7392211;19;20062;-58
2022/12/21 11:11:37;;;;;;;45.80;20.70;;;;;;;9.93;54.59;101049.50;7391854;19;20002;-59
2022/12/21 11:14:16;;;;;;;47.05;19.75;;;;;;;9.88;54.74;101052.41;7392448;19;20013;-58
2022/12/21 11:16:44;;;;;;;45.28;20.73;;;;;;;9.79;55.02;101048.97;7391266;19;20027;-57
2022/12/21 11:19:12;;;;;;;45.67;21.80;;;;;;;9.81;55.03;101052.16;7391045;19;20010;-58
2022/12/21 11:21:51;;;;;;;47.92;21.58;;;;;;;9.86;54.84;101042.97;7390895;19;20353;-58
2022/12/21 11:24:44;;;;;;;49.20;24.08;;;;;;;9.89;54.74;101034.94;7390203;19;20020;-58
2022/12/21 11:27:21;;;;;;;50.42;23.80;;;;;;;9.97;54.01;101027.84;7390523;19;19999;-58
2022/12/21 11:29:58;;;;;;;49.17;22.10;;;;;;;10.01;54.22;101015.91;7392173;19;20003;-58
2022/12/21 11:32:26;;;;;;;53.75;23.90;;;;;;;10.10;53.77;101015.06;7389546;19;20010;-58
2022/12/21 11:34:54;;;;;;;56.33;23.95;;;;;;;10.08;53.97;101012.66;7390095;19;20024;-58
2022/12/21 11:37:21;;;;;;;46.33;21.90;;;;;;;10.06;53.80;101014.13;7391299;19;20010;-58
2022/12/21 11:39:47;;;;;;;47.95;21.58;;;;;;;10.04;54.00;101016.41;7390112;19;20006;-58